Hegeler, Illinois
Current Conditions -  °F | °C
As of 5:55 AM on Wednesday 28 Jan 2015 (Local Time) from KDNV Reporting Station
Clear Clear  
Wind Chill: 12°   Ceiling: Unl
Heat Index: 20°   Visibility: 10mi
Dew Point: 16°   Wind: 6mph
Humidity: 86%   Direction: 120°ESE
Pressure: 30.26"   Gusts: NA
Location:  40.1365°N, 87.6307°W
Report Text: KDNV 281155Z AUTO 12005KT 10SM CLR M07/M09 A3026 RMK AO2 T10691089 11066 21080
Loading
Personal Weather Stations






























Interactive Weather Map New forecast layout! Learn more

10-Day Weather Forecast

Advertisements
Track Severe Weather on mobile